Latest Weather Observations for Cape Bruny AWS

IDT60901

Issued at 5:25 am EST Friday 1 August 2014 (issued every 10 minutes, with the page automatically refreshed every 10 minutes)

About weather observations | Map of Hobart area stations | Latest observations for Hobart area | Other Formats
Station Details ID: 094198 Name: CAPE BRUNY (CAPE BRUNY) Lat: -43.49 Lon: 147.14 Height: 59.7 m
Data from the previous 72 hours. | See also: Recent months at Cape Bruny AWS
Date/Time
EST
Tmp

°C
App
Tmp
°C
Dew
Point
°C
Rel
Hum
%
Delta-T

°C
Wind Press
QNH
hPa
Press
MSL
hPa
Rain
since
9 am
mm
Dir
 
Spd
km/h
Gust
km/h
Spd
kts
Gust
kts
01/05:00am 5.0 -2.9 1.1 76 1.6 NW 32 50 17 27 985.2 985.2 12.0
01/04:41am 5.4 -2.5 1.3 75 1.6 NW 32 52 17 28 985.3 - 12.0
01/04:30am 5.3 -1.7 1.8 78 1.4 NNW 28 39 15 21 985.3 - 12.0
01/04:12am 6.2 -1.9 0.7 68 2.2 NW 33 52 18 28 985.3 - 12.0
01/04:00am 6.2 -3.1 0.3 66 2.3 NW 39 50 21 27 984.9 984.9 12.0
01/03:49am 5.9 -2.3 0.3 67 2.2 NW 33 52 18 28 984.9 - 12.0
01/03:30am 5.7 -4.3 1.1 72 1.8 NW 43 54 23 29 984.8 - 12.0
01/03:00am 6.1 -2.6 2.0 75 1.7 WNW 37 56 20 30 984.9 984.9 12.0
01/02:31am 5.8 -4.8 0.6 69 2.0 NW 46 65 25 35 984.0 - 12.0
01/02:30am 5.7 -4.8 1.2 73 1.8 NW 46 57 25 31 984.0 - 12.0
01/02:00am 5.5 -5.4 1.6 76 1.6 WNW 48 69 26 37 984.2 984.3 12.0
01/01:35am 5.8 -3.0 1.3 73 1.8 WNW 37 57 20 31 983.9 - 12.0
01/01:30am 5.9 -3.2 2.0 76 1.6 WNW 39 54 21 29 983.6 - 12.0
01/01:00am 4.8 -3.0 1.5 79 1.3 WNW 32 50 17 27 983.3 983.4 12.0
01/12:30am 5.0 -1.1 2.5 84 1.0 NW 24 30 13 16 983.6 - 11.8
01/12:00am 5.2 -4.8 2.4 82 1.2 WNW 44 59 24 32 982.8 982.9 11.4
 
Date/Time
EST
Tmp

°C
App
Tmp
°C
Dew
Point
°C
Rel
Hum
%
Delta-T

°C
Wind Press
QNH
hPa
Press
MSL
hPa
Rain
since
9 am
mm
Dir
 
Spd
km/h
Gust
km/h
Spd
kts
Gust
kts
31/11:38pm 5.4 -4.4 2.4 81 1.2 NW 43 61 23 33 982.6 - 11.2
31/11:30pm 5.2 -3.8 2.4 82 1.1 NW 39 54 21 29 982.1 - 11.2
31/11:26pm 5.2 -3.0 2.6 83 1.1 NW 35 46 19 25 982.0 - 11.2
31/11:16pm 5.6 -7.1 2.8 82 1.2 WNW 59 78 32 42 981.8 - 11.2
31/11:00pm 6.2 -7.6 3.0 80 1.4 WNW 65 76 35 41 981.8 981.9 11.0
31/10:58pm 6.0 -7.9 2.6 79 1.4 WNW 65 76 35 41 981.7 - 11.0
31/10:30pm 5.1 -4.8 2.8 85 0.9 NW 44 65 24 35 981.1 - 11.0
31/10:00pm 5.3 -4.0 2.7 83 1.1 NW 41 65 22 35 980.5 980.6 10.8
31/09:31pm 5.5 -2.6 3.3 86 0.9 WNW 35 54 19 29 981.2 - 10.8
31/09:30pm 5.6 -2.9 3.4 86 0.9 WNW 37 54 20 29 981.1 - 10.4
31/09:00pm 6.2 -1.9 3.2 81 1.3 NW 35 54 19 29 980.4 980.5 10.0
31/08:48pm 6.4 -1.2 3.0 79 1.4 WNW 32 52 17 28 980.0 - 10.0
31/08:30pm 5.9 -0.5 3.1 82 1.2 NW 26 37 14 20 979.7 - 10.0
31/08:14pm 6.1 -2.0 3.1 81 1.3 NW 35 54 19 29 979.0 - 10.0
31/08:00pm 5.6 -2.0 2.8 82 1.2 NW 32 44 17 24 979.2 979.3 9.8
31/07:30pm 5.4 -2.4 2.9 84 1.0 NNW 33 54 18 29 979.4 - 9.8
31/07:23pm 5.5 -2.7 2.7 82 1.1 NW 35 54 19 29 979.3 - 9.8
31/07:19pm 5.7 -3.3 2.7 81 1.2 NW 39 54 21 29 979.0 - 9.8
31/07:15pm 5.8 -6.9 3.0 82 1.2 NW 59 78 32 42 978.7 - 9.8
31/07:14pm 5.7 -7.5 2.5 80 1.3 NW 61 78 33 42 978.6 - 9.8
31/07:00pm 5.2 -3.3 2.9 85 1.0 NNW 37 80 20 43 979.2 979.3 9.4
31/06:33pm 5.0 -1.8 3.0 87 0.8 NNW 28 48 15 26 978.9 - 9.2
31/06:30pm 5.0 -1.8 2.9 86 0.9 NNW 28 43 15 23 978.9 - 9.2
31/06:20pm 5.2 -2.1 2.7 84 1.0 NNW 30 56 16 30 979.2 - 9.2
31/06:00pm 4.9 -0.4 2.9 87 0.8 NNW 20 30 11 16 979.0 979.1 9.2
31/05:30pm 5.3 0.1 3.5 88 0.8 NNW 20 32 11 17 979.4 - 9.2
31/05:00pm 5.2 1.0 3.7 90 0.6 NNW 15 24 8 13 979.3 979.4 9.2
31/04:30pm 5.1 -0.4 3.8 91 0.5 NNE 22 33 12 18 978.5 - 9.2
31/04:00pm 5.0 -0.2 3.7 91 0.6 N 20 32 11 17 979.4 979.5 9.2
31/03:30pm 5.0 0.4 3.7 91 0.5 N 17 22 9 12 980.2 - 9.2
31/03:00pm 4.9 0.3 3.6 91 0.6 N 17 22 9 12 979.9 980.0 9.2
31/02:51pm 4.8 -0.2 3.5 91 0.5 N 19 24 10 13 979.8 - 9.2
31/02:30pm 4.9 0.3 3.6 91 0.5 NNW 17 24 9 13 981.8 - 9.0
31/02:00pm 5.1 1.3 3.9 92 0.5 N 13 17 7 9 981.3 981.4 9.0
31/01:30pm 5.3 1.5 4.1 92 0.5 N 13 19 7 10 981.5 - 8.6
31/01:00pm 5.5 2.2 4.3 92 0.5 N 11 15 6 8 982.1 982.2 8.2
31/12:30pm 5.6 2.6 4.2 91 0.6 WNW 9 15 5 8 982.7 - 7.2
31/12:00pm 6.0 2.7 4.8 92 0.5 NNW 11 15 6 8 983.8 983.9 6.8
31/11:30am 6.1 2.4 4.7 91 0.6 NNW 13 17 7 9 984.0 - 6.0
31/11:00am 5.9 1.8 4.5 91 0.6 N 15 20 8 11 985.0 985.0 5.0
31/10:30am 6.4 2.7 4.7 89 0.7 WNW 13 19 7 10 985.8 - 3.8
31/10:00am 6.6 3.0 4.8 88 0.8 NW 13 22 7 12 986.1 986.1 2.2
31/09:30am 6.6 1.3 4.8 88 0.8 NW 22 35 12 19 986.7 - 0.8
31/09:00am 6.5 1.5 4.5 87 0.9 NNW 20 30 11 16 986.2 986.2 37.4
31/08:30am 6.6 1.7 4.9 89 0.7 N 20 30 11 16 986.5 - 37.4
31/08:00am 6.4 1.0 4.7 89 0.8 N 22 33 12 18 986.9 986.9 37.4
31/07:30am 6.2 1.2 4.4 88 0.8 N 20 30 11 16 987.2 - 37.4
31/07:00am 6.7 1.8 5.0 89 0.8 N 20 33 11 18 987.6 987.6 37.4
31/06:30am 6.4 1.5 5.0 91 0.6 N 20 28 11 15 987.2 - 37.4
31/06:00am 6.3 1.2 4.3 87 0.9 NNW 20 28 11 15 988.8 988.8 37.2
31/05:30am 6.2 0.3 4.0 86 0.9 NW 24 33 13 18 988.8 - 37.0
31/05:00am 6.7 2.7 4.7 87 0.9 NW 15 19 8 10 988.9 988.9 36.6
31/04:30am 6.6 0.9 4.8 88 0.8 W 24 32 13 17 988.6 - 36.6
31/04:10am 6.9 0.1 5.1 88 0.8 WSW 30 50 16 27 989.0 - 36.4
31/04:00am 7.2 0.5 5.5 89 0.8 WSW 30 39 16 21 988.9 988.9 36.0
31/03:30am 7.3 0.3 5.9 91 0.6 W 32 41 17 22 989.1 - 35.2
31/03:00am 7.4 -0.6 5.7 89 0.8 W 37 48 20 26 989.3 989.3 34.8
31/02:30am 7.9 -1.4 6.0 88 0.9 WSW 44 57 24 31 988.9 - 34.4
31/02:00am 8.8 1.1 7.3 90 0.7 W 37 50 20 27 988.8 988.8 32.2
31/01:30am 9.0 3.1 7.6 91 0.7 W 28 39 15 21 988.1 - 30.4
31/01:00am 9.0 4.6 7.3 89 0.8 W 20 26 11 14 987.9 987.9 29.0
31/12:46am 9.2 1.9 7.3 88 0.9 W 35 54 19 29 987.3 - 28.6
31/12:30am 9.6 1.3 7.9 89 0.8 W 41 54 22 29 987.9 - 27.6
31/12:24am 9.4 1.8 7.7 89 0.8 W 37 54 20 29 987.3 - 27.4
31/12:02am 10.7 4.3 8.6 87 1.0 WNW 32 50 17 27 987.5 - 26.2
31/12:00am 10.7 4.1 8.6 87 1.0 NW 33 50 18 27 987.3 987.3 25.8
 
Date/Time
EST
Tmp

°C
App
Tmp
°C
Dew
Point
°C
Rel
Hum
%
Delta-T

°C
Wind Press
QNH
hPa
Press
MSL
hPa
Rain
since
9 am
mm
Dir
 
Spd
km/h
Gust
km/h
Spd
kts
Gust
kts
30/11:30pm 11.4 3.8 7.7 78 1.8 NW 37 59 20 32 986.5 - 25.0
30/11:00pm 10.7 3.2 8.1 84 1.3 NW 37 57 20 31 986.8 986.8 25.0
30/10:30pm 10.4 4.3 8.3 87 1.0 NNW 30 57 16 31 987.6 - 23.8
30/10:28pm 10.3 4.6 8.4 88 0.9 NNW 28 54 15 29 987.6 - 23.8
30/10:00pm 9.9 5.0 8.5 91 0.7 N 24 37 13 20 987.8 987.8 23.4
30/09:30pm 10.0 5.8 8.4 90 0.8 NNW 20 32 11 17 988.1 - 23.0
30/09:00pm 10.0 6.5 8.6 91 0.7 N 17 24 9 13 988.7 988.7 22.4
30/08:30pm 10.1 5.9 8.4 89 0.8 N 20 33 11 18 989.2 - 22.4
30/08:00pm 10.2 5.2 8.0 86 1.1 NNW 24 35 13 19 989.2 989.2 22.0
30/07:30pm 10.3 6.1 7.5 83 1.3 N 19 30 10 16 989.4 - 21.8
30/07:00pm 10.4 6.0 7.5 82 1.4 NNW 20 28 11 15 990.2 990.2 21.8
30/06:30pm 10.3 1.3 7.2 81 1.5 NW 44 59 24 32 990.5 - 21.6
30/06:23pm 10.3 3.4 7.2 81 1.5 NW 33 52 18 28 990.6 - 21.6
30/06:14pm 9.7 3.1 7.6 87 1.0 NNW 32 44 17 24 990.9 - 21.6
30/06:00pm 8.6 5.2 7.5 93 0.5 N 15 26 8 14 991.1 991.2 21.2
30/05:30pm 8.4 5.3 7.3 93 0.5 N 13 15 7 8 990.8 - 21.0
30/05:00pm 8.6 6.0 7.7 94 0.4 N 11 17 6 9 991.6 991.7 19.0
30/04:30pm 8.7 5.3 7.6 93 0.5 N 15 17 8 9 991.6 - 16.8
30/04:00pm 8.6 5.6 7.5 93 0.5 NNE 13 15 7 8 992.1 992.2 15.2
30/03:30pm 8.5 6.2 7.3 92 0.6 N 9 11 5 6 992.5 - 13.0
30/03:00pm 8.7 6.4 7.5 92 0.6 N 9 13 5 7 992.6 992.7 10.6
30/02:30pm 8.7 5.6 7.3 91 0.7 NNE 13 15 7 8 992.9 - 9.6
30/02:00pm 8.8 7.0 7.1 89 0.8 N 6 9 3 5 993.0 993.1 8.2
30/01:30pm 9.0 4.7 7.0 87 0.9 W 19 30 10 16 993.3 - 7.0
30/01:00pm 9.4 5.1 7.2 86 1.1 WNW 19 28 10 15 992.9 993.0 6.4
30/12:30pm 9.5 5.8 7.8 89 0.8 NW 17 22 9 12 993.0 - 6.2
30/12:00pm 9.6 3.7 7.7 88 0.9 W 28 39 15 21 993.3 993.4 4.2
30/11:30am 10.0 3.9 8.3 89 0.8 W 30 39 16 21 993.4 - 2.4
30/11:00am 10.4 2.4 7.5 82 1.4 WNW 39 61 21 33 992.7 992.8 0.8
30/10:30am 10.4 2.7 7.3 81 1.5 NW 37 57 20 31 992.1 - 0.6
30/10:21am 10.2 2.5 7.3 82 1.4 NW 37 57 20 31 992.5 - 0.6
30/10:00am 10.0 2.6 6.7 80 1.6 NW 35 46 19 25 992.8 992.9 0.4
30/09:30am 8.5 3.1 6.5 87 0.9 NNW 24 33 13 18 992.9 - 0.2
30/09:00am 7.9 2.4 5.9 87 0.9 NNW 24 37 13 20 993.3 993.4 7.2
30/08:30am 7.7 1.3 5.2 84 1.1 NNW 28 37 15 20 993.1 - 7.0
30/08:00am 8.5 0.7 4.9 78 1.6 WNW 35 46 19 25 993.6 993.7 6.8
30/07:59am 8.5 0.3 4.7 77 1.7 WNW 37 46 20 25 993.6 - 6.8
30/07:42am 8.8 -3.4 3.8 71 2.2 NW 57 76 31 41 993.0 - 6.6
30/07:38am 9.8 1.2 2.6 61 3.1 NW 37 56 20 30 993.4 - 6.6
30/07:30am 9.9 2.1 1.8 57 3.4 NW 32 44 17 24 993.4 - 6.6
30/07:04am 9.3 1.2 1.0 56 3.4 NW 33 52 18 28 993.8 - 6.6
30/07:00am 9.4 1.3 0.8 55 3.5 NW 33 46 18 25 993.8 993.9 6.6
30/06:30am 9.3 1.3 0.7 55 3.5 NW 32 39 17 21 993.9 - 6.6
30/06:19am 9.3 0.4 0.7 55 3.5 NW 37 56 20 30 994.0 - 6.6
30/06:00am 9.5 -0.7 0.9 55 3.6 NW 44 59 24 32 993.9 994.0 6.6
30/05:35am 9.5 0.7 1.2 56 3.4 WNW 37 56 20 30 994.1 - 6.6
30/05:30am 9.4 0.3 1.8 59 3.2 WNW 39 54 21 29 994.0 - 6.6
30/05:04am 9.4 -1.6 2.9 64 2.8 WNW 50 69 27 37 993.8 - 6.6
30/05:00am 9.5 -2.1 1.9 59 3.2 WNW 52 69 28 37 993.6 993.7 6.6
30/04:30am 9.2 -1.1 2.8 64 2.7 WNW 46 70 25 38 993.3 - 6.6
30/04:00am 9.1 -2.8 2.4 63 2.9 W 54 74 29 40 992.9 993.0 6.6
30/03:39am 8.4 -3.4 2.8 68 2.4 WNW 54 72 29 39 992.9 - 6.6
30/03:30am 8.4 -3.9 3.1 69 2.3 W 57 69 31 37 992.7 - 6.6
30/03:28am 8.5 -3.6 3.4 70 2.2 W 56 69 30 37 992.7 - 6.6
30/03:00am 9.2 -7.1 0.9 56 3.4 W 76 96 41 52 991.6 991.7 6.6
30/02:30am 8.6 -8.0 1.1 59 3.1 W 78 96 42 52 990.6 - 6.6
30/02:19am 9.9 -6.9 0.0 50 4.0 W 78 96 42 52 990.2 - 6.6
30/02:11am 9.6 -8.0 0.0 51 3.9 W 82 91 44 49 990.2 - 6.6
30/02:00am 9.0 -3.7 2.8 65 2.7 W 59 78 32 42 990.1 990.1 6.6
30/01:52am 8.0 -2.4 1.8 65 2.6 W 46 76 25 41 989.9 - 6.6
30/01:47am 8.2 -1.7 2.7 68 2.3 W 44 52 24 28 989.9 - 6.6
30/01:39am 7.9 -6.1 2.2 67 2.4 W 65 83 35 45 989.9 - 6.6
30/01:30am 8.1 -5.8 2.8 69 2.2 W 65 80 35 43 989.7 - 6.6
30/01:28am 7.8 -5.8 2.5 69 2.2 W 63 78 34 42 989.6 - 6.6
30/01:21am 7.8 -9.6 2.5 69 2.2 W 83 104 45 56 989.3 - 6.6
30/01:00am 7.6 -4.9 2.1 68 2.3 WNW 57 85 31 46 989.2 989.2 6.4
30/12:44am 7.0 -6.4 3.6 79 1.4 WNW 63 82 34 44 988.9 - 6.4
30/12:39am 7.4 -7.1 4.4 81 1.3 W 70 82 38 44 989.5 - 6.4
30/12:35am 7.6 -11.0 4.0 78 1.6 W 91 109 49 59 988.9 - 6.4
30/12:33am 7.8 -11.9 3.3 73 1.9 W 96 109 52 59 988.5 - 6.2
30/12:30am 8.2 -8.0 3.5 72 2.0 W 78 107 42 58 988.6 - 6.2
30/12:27am 8.3 -7.0 2.5 67 2.4 W 72 91 39 49 988.6 - 6.2
30/12:26am 8.1 -1.6 3.0 70 2.2 WNW 43 83 23 45 988.7 - 6.2
30/12:00am 7.2 -3.0 3.4 77 1.6 WNW 46 65 25 35 988.7 988.7 6.2
 
Date/Time
EST
Tmp

°C
App
Tmp
°C
Dew
Point
°C
Rel
Hum
%
Delta-T

°C
Wind Press
QNH
hPa
Press
MSL
hPa
Rain
since
9 am
mm
Dir
 
Spd
km/h
Gust
km/h
Spd
kts
Gust
kts
29/11:39pm 7.1 -5.1 3.9 80 1.4 WNW 57 76 31 41 988.1 - 6.2
29/11:30pm 7.3 -9.0 3.0 74 1.8 W 78 104 42 56 987.9 - 6.0
29/11:28pm 7.4 -9.2 3.3 75 1.7 W 80 104 43 56 987.7 - 6.0
29/11:27pm 7.4 -10.5 3.5 76 1.7 W 87 104 47 56 987.2 - 6.0
29/11:24pm 7.1 -6.0 3.2 76 1.6 W 61 87 33 47 987.8 - 6.0
29/11:16pm 7.2 -5.4 3.8 79 1.5 W 59 67 32 36 987.3 - 6.0
29/11:09pm 7.6 -9.2 4.6 81 1.3 W 82 102 44 55 987.7 - 6.0
29/11:08pm 7.6 -4.5 4.4 80 1.4 WNW 57 102 31 55 987.6 - 6.0
29/11:00pm 7.7 -4.1 5.5 86 1.0 W 57 80 31 43 987.4 987.4 5.8
29/10:30pm 8.7 -5.7 4.9 77 1.7 WNW 70 93 38 50 986.1 - 5.0
29/10:00pm 9.3 -4.7 4.1 70 2.3 WNW 67 98 36 53 985.4 985.4 4.8
29/09:53pm 9.2 -7.2 2.8 64 2.7 WNW 78 98 42 53 985.2 - 4.8
29/09:52pm 9.7 -7.6 2.8 62 3.0 WNW 83 98 45 53 985.0 - 4.8
29/09:48pm 11.6 -10.2 2.1 52 4.1 W 106 132 57 71 983.8 - 4.8
29/09:47pm 11.5 -3.1 0.9 48 4.4 W 67 132 36 71 984.3 - 4.8
29/09:44pm 11.3 -1.7 3.6 59 3.4 W 61 80 33 43 985.1 - 4.8
29/09:43pm 11.3 -2.2 3.1 57 3.6 W 63 80 34 43 985.0 - 4.8
29/09:30pm 11.1 -6.3 2.4 55 3.7 W 83 107 45 58 984.2 - 4.8
29/09:00pm 10.2 -7.0 3.3 62 3.1 WNW 83 119 45 64 983.4 983.5 4.8
29/08:54pm 10.4 -7.1 3.7 63 3.0 WNW 85 107 46 58 983.9 - 4.8
29/08:53pm 10.3 -7.7 2.9 60 3.2 WNW 87 102 47 55 983.7 - 4.8
29/08:45pm 9.6 -4.1 4.0 68 2.5 WNW 65 113 35 61 983.7 - 4.8
29/08:30pm 9.7 -2.4 4.3 69 2.4 WNW 57 89 31 48 983.6 - 4.6
29/08:11pm 10.7 -1.8 2.3 56 3.6 WNW 57 85 31 46 983.6 - 4.6
29/08:10pm 10.7 -1.8 2.3 56 3.6 WNW 57 74 31 40 983.5 - 4.6
29/08:00pm 11.3 -5.7 3.6 59 3.5 W 82 102 44 55 983.3 983.4 4.6
29/07:59pm 11.5 -5.9 2.5 54 3.9 W 83 102 45 55 983.2 - 4.6
29/07:57pm 11.1 -6.2 2.7 56 3.6 WNW 83 98 45 53 982.9 - 4.6
29/07:48pm 10.6 -2.9 2.9 59 3.3 WNW 63 111 34 60 982.5 - 4.6
29/07:30pm 10.2 -3.8 4.1 66 2.7 WNW 67 87 36 47 982.7 - 4.6
29/07:00pm 9.2 -3.4 3.8 69 2.4 WNW 59 89 32 48 982.6 982.7 4.4
29/06:53pm 9.1 -3.9 3.5 68 2.4 WNW 61 80 33 43 982.7 - 4.4
29/06:47pm 9.1 -8.9 3.3 67 2.5 W 87 107 47 58 981.6 - 4.4
29/06:44pm 8.3 -4.8 2.8 68 2.3 WNW 61 83 33 45 982.4 - 4.4
29/06:41pm 8.4 -12.0 3.5 71 2.1 W 100 120 54 65 982.5 - 4.4
29/06:30pm 9.3 -5.3 5.9 79 1.6 W 72 100 39 54 983.4 - 4.2
29/06:29pm 9.4 -1.1 5.8 78 1.7 WNW 50 83 27 45 983.3 - 4.2
29/06:00pm 8.6 -1.2 5.2 79 1.6 WNW 46 65 25 35 983.1 983.2 3.8
29/05:53pm 8.3 -1.1 5.2 81 1.4 NW 44 65 24 35 983.1 - 3.8
29/05:50pm 8.3 -0.5 5.4 82 1.3 NW 41 52 22 28 983.0 - 3.8
29/05:41pm 8.7 -3.8 5.8 82 1.3 WNW 61 80 33 43 983.6 - 3.8
29/05:38pm 8.9 -5.7 6.2 83 1.2 WNW 72 80 39 43 984.0 - 3.6
29/05:30pm 8.8 -1.3 5.7 81 1.4 WNW 48 70 26 38 983.6 - 3.4
29/05:28pm 8.7 -0.7 5.6 81 1.4 WNW 44 65 24 35 983.3 - 3.4
29/05:26pm 8.6 -0.5 5.7 82 1.3 WNW 43 59 23 32 983.2 - 3.4
29/05:21pm 9.1 1.8 7.2 88 0.9 WNW 35 41 19 22 983.7 - 3.4
29/05:03pm 10.6 -0.5 7.8 83 1.4 W 56 74 30 40 983.8 - 1.6
29/05:02pm 10.9 -0.3 8.5 85 1.2 W 57 74 31 40 983.6 - 1.6
29/05:01pm 10.8 4.7 8.4 85 1.2 WNW 30 70 16 38 983.4 - 1.6
29/05:00pm 10.4 5.7 7.6 83 1.4 WNW 22 35 12 19 983.4 983.5 1.4
29/04:30pm 9.9 6.4 7.3 84 1.2 N 15 24 8 13 982.6 - 1.4
29/04:00pm 9.8 3.5 7.4 85 1.2 NNW 30 43 16 23 982.5 982.6 1.4
29/03:35pm 9.9 4.0 7.3 84 1.2 N 28 46 15 25 982.0 - 1.4
29/03:30pm 10.0 5.3 7.6 85 1.2 N 22 41 12 22 982.1 - 1.4
29/03:00pm 10.3 5.9 7.5 83 1.4 N 20 35 11 19 983.4 983.5 1.4
29/02:30pm 10.5 6.6 8.6 88 0.9 N 19 33 10 18 984.8 - 1.4
29/02:00pm 9.2 4.8 6.6 84 1.2 N 19 30 10 16 985.4 985.4 1.4
29/01:34pm 9.5 3.3 6.0 79 1.6 NNW 28 46 15 25 986.0 - 1.2
29/01:30pm 9.5 3.6 5.9 78 1.7 NNW 26 39 14 21 986.2 - 1.2
29/01:00pm 9.3 4.7 6.6 83 1.3 N 20 32 11 17 986.8 986.8 1.2
29/12:30pm 9.0 3.2 6.3 83 1.2 WNW 26 37 14 20 987.4 - 1.2
29/12:15pm 8.6 -1.6 5.4 80 1.4 WNW 48 72 26 39 987.7 - 0.8
29/12:12pm 8.7 -0.4 6.0 83 1.2 WNW 43 56 23 30 987.9 - 0.8
29/12:00pm 9.2 -3.2 6.3 82 1.4 W 61 80 33 43 987.9 987.9 0.6
29/11:57am 9.4 -4.6 6.1 80 1.5 W 69 80 37 43 987.8 - 0.4
29/11:30am 11.1 1.5 4.3 63 3.1 WNW 44 63 24 34 987.2 - 0.0
29/11:22am 11.2 1.5 3.0 57 3.6 NW 43 61 23 33 987.2 - 0.0
29/11:17am 11.0 -3.6 2.8 57 3.6 NW 69 87 37 47 987.1 - 0.0
29/11:16am 11.1 1.3 3.4 59 3.4 NW 44 80 24 43 987.4 - 0.0
29/11:11am 11.5 3.3 4.7 63 3.1 NW 37 57 20 31 988.0 - 0.0
29/11:07am 11.4 2.7 3.9 60 3.3 WNW 39 46 21 25 987.9 - 0.0
29/11:01am 11.2 -1.9 4.9 65 2.9 W 63 82 34 44 987.7 - 0.0
29/11:00am 11.2 -2.3 4.7 64 3.0 W 65 82 35 44 987.6 987.6 0.0
29/10:58am 11.4 -2.4 5.1 65 2.9 WNW 67 82 36 44 987.6 - 0.0
29/10:56am 11.2 3.7 4.7 64 3.0 WNW 33 65 18 35 988.0 - 0.0
29/10:39am 11.5 3.3 6.4 71 2.4 W 39 48 21 26 987.7 - 0.0
29/10:30am 12.3 4.0 5.9 65 3.0 NW 39 61 21 33 987.8 - 0.0
29/10:05am 11.5 4.6 6.4 71 2.4 NW 32 54 17 29 988.1 - 0.0
29/10:00am 11.6 5.9 6.5 71 2.4 NW 26 44 14 24 988.2 988.2 0.0
29/09:30am 10.9 6.2 7.8 81 1.5 NNW 22 32 12 17 988.1 - 0.0
29/09:00am 10.7 5.3 7.8 82 1.4 NW 26 35 14 19 988.3 988.3 7.8
29/08:43am 10.2 -0.1 6.5 78 1.7 NW 50 76 27 41 987.8 - 7.8
29/08:38am 9.9 3.7 7.8 87 1.0 NW 30 52 16 28 988.2 - 7.6
29/08:30am 10.1 4.7 8.2 88 0.9 NW 26 35 14 19 989.0 - 7.0
29/08:00am 10.4 4.6 7.8 84 1.3 NNW 28 37 15 20 987.9 987.9 6.6
29/07:30am 9.6 5.3 8.0 90 0.8 N 20 39 11 21 988.2 - 6.6
29/07:00am 9.6 3.8 8.0 90 0.8 N 28 46 15 25 988.7 988.7 6.6
29/06:54am 9.7 3.9 8.0 89 0.8 N 28 46 15 25 988.4 - 6.6
29/06:30am 10.5 5.4 7.7 83 1.4 NNW 24 35 13 19 989.3 - 4.0
29/06:00am 11.2 6.6 6.5 73 2.2 N 20 32 11 17 989.1 989.1 3.4
29/05:30am 11.2 6.6 6.5 73 2.2 N 20 32 11 17 990.2 - 3.4

Latest Capital City Observations: Canberra | Sydney | Melbourne | Brisbane | Adelaide | Perth | Hobart | Darwin

Other Formats:

Comma delimited format used in spreadsheet applications
http://www.bom.gov.au/fwo/IDT60901/IDT60901.95967.axf

JavaScript Object Notation format (JSON) in row-major order
http://www.bom.gov.au/fwo/IDT60901/IDT60901.95967.json